Country
Station

 

Weather  for  Goteborg/Landvetter  -  Sweden    Sweden

  
13 °C (55 °F)
    
 
 

Current METAR for Goteborg/Landvetter is :

ESGG 201950Z 27008KT 9999 BKN011 13/12 Q1009

 

This is a report for Goteborg/Landvetter - Sweden.
 
The report was made 33 minutes ago, at 19:50 UTC .
The wind was blowing at a speed of 4.1 meters per second (9.2 miles per hour) from west (270°).
 
The temperature was 13 °C (55 °F), with a dew-point at 12 °C (54 °F).
The atmospheric pressure was 1009 hPa (29.80 inHg).
The relative humidity was 93.6%.
 
There were broken clouds at a height of 335 meters (1100 feet).
 
The overall visibility was greater than 10 kilometers (6.2 miles).
 

 
 
 
 

Country :   A   B   C   D   E   F   G   H   I   J   K   L   M   N   O   P   Q   R   S   T   U   V   W   Y   Z

 

Site Info  |  Disclaimer  |  Credits  |  Privacy
Contact us  |  Add to favorites
© 2013-2019 METARs - All rights reserved